Terminal Aerodrome Forecast
Issued by NWS Twin Cities, MN

Home | Current Version | Previous Version | Graphics & Text | Print | Product List | Glossary On
Versions: 1 2 3 4 5 6 7 8 9 10 11 12 13 14 15 16 17 18 19 20 21 22 23 24 25 26 27 28 29 30 31 32
000
FTUS43 KMPX 292356 AAA
TAFMSP
TAF AMD
KMSP 292356Z 3000/0106 07010G24KT P6SM -SHRA BKN040 OVC080
      TEMPO 3000/3002 3SM -TSRA SCT020 BKN030CB
     FM300230 32007KT P6SM SKC
     FM301500 02007KT P6SM SCT060 SCT250
     FM302300 05008KT P6SM BKN250=

USA.gov is the U.S. government's official web portal to all federal, state and local government web resources and services.